Lake Fork, IL (62541)

12:01 AM CDT on March 26, 2017 (GMT -0500)
South Side - Mt. Pulaski | | Change Station

Elev 623 ft 40.00 °N, 89.29 °W | Updated 16 seconds ago

Overcast
Overcast
59.2 °F
Feels Like 59.2 °F
N
2.9
Wind Variable Wind from SE
Gusts 4.9 mph

Today
High -- | Low -- °F
--% Chance of Precip.
Yesterday
High -- | Low -- °F
Precip. -- in
Pressure 29.85 in
Visibility 10.0 miles
Clouds Scattered Clouds 3100 ft
Scattered Clouds 6000 ft
Overcast 7500 ft
Dew Point 58 °F
Humidity 95%
Rainfall 0.00 in
Snow Depth Not available.
6:50 AM 7:15 PM
Waning Crescent, 5% visible
METAR KAAA 260455Z AUTO 14009G14KT 10SM SCT031 SCT060 OVC075 15/14 A2985 RMK AO2 T01480141
Pressure 29.85 in
Visibility 10.0 miles
Clouds Scattered Clouds 3100 ft
Scattered Clouds 6000 ft
Overcast 7500 ft
Dew Point 58 °F
Humidity 95%
Rainfall 0.00 in
Snow Depth Not available.
6:50 AM 7:15 PM
Waning Crescent, 5% visible
METAR KAAA 260455Z AUTO 14009G14KT 10SM SCT031 SCT060 OVC075 15/14 A2985 RMK AO2 T01480141

Get Severe Weather Alerts

Thanks for signing up!

Be on the lookout for a verification email in your inbox.

You'll start receiving the daily forecast at 8 AM.

×

10-Day Weather Forecast

Almanac

Astronomy

Mar. 26, 2017 Rise Set
Actual Time
Civil Twilight
Nautical Twilight
Astronomical Twilight
Moon
Length of Visible Light
Length of Day
Tomorrow will be .
, % of the Moon is Illuminated

Today's Extremes

State Highs State Lows

Community

WunderPhotos

Upload Photos

1,962,540 photos uploaded!

WunderBlog® & News

Nearby

Air Quality

  Air Quality AQ Index Pollutant
Not available.

Snow Depth

Station Depth Elevation

Earthquake Activity

City Distance Mag. Time & Date
Minimum magnitude displayed is 2.5.

Earthquake Activity

City Distance Mag. Time & Date
Minimum magnitude displayed is 2.5.

Coastal Water Temperatures

Place Temperature

Stations

Nearby Weather Stations

Station Location Temp. Windchill Dew Point Humidity Wind Precip. Elev Updated Type
                   

Watches & Warnings

There are currently no watches in effect.